Latest Weather Observations for Mangrove Mountain

IDN60801

Issued at 8:33 am EST Sunday 31 July 2016 (issued every 30 minutes, with the page automatically refreshed every 10 minutes)

About weather observations | Map of weather stations | Latest weather observations for NSW | Other Formats
Station Details ID: 061375 Name: MANGROVE MOUNTAIN AWS Lat: -33.29 Lon: 151.21 Height: 305.0 m
Data from the previous 72 hours. | See also: Recent months at Mangrove Mountain
Date/Time
EST
Temp
°C
App
Temp
°C
Dew
Point
°C
Rel
Hum
%
Delta-T
°C
Wind Press
QNH
hPa
Press
MSL
hPa
Rain since
9am
mm
Dir  Spd
km/h
Gust
km/h
Spd
kts
Gust
kts
31/08:30am 11.1 8.6 8.1 82 1.5 NW 11 17 6 9 - - 0.2
31/08:00am 10.3 8.1 9.4 94 0.5 NW 11 17 6 9 - - 0.2
31/07:30am 8.9 6.5 8.8 99 0.0 NW 11 17 6 9 - - 0.2
31/07:00am 7.8 5.5 7.5 98 0.1 NW 9 13 5 7 - - 0.2
31/06:30am 7.9 5.6 7.3 96 0.3 WNW 9 13 5 7 - - 0.2
31/06:00am 7.6 5.3 7.6 100 0.0 WNW 9 15 5 8 - - 0.2
31/05:30am 7.9 5.7 7.9 100 0.0 NW 9 17 5 9 - - 0.2
31/05:00am 7.8 6.0 7.8 100 0.0 NW 7 13 4 7 - - 0.2
31/04:30am 7.9 6.3 7.9 100 0.0 WNW 6 9 3 5 - - 0.0
31/04:00am 8.0 6.4 8.0 100 0.0 WNW 6 7 3 4 - - 0.0
31/03:30am 8.1 6.9 8.1 100 0.0 WNW 4 6 2 3 - - 0.0
31/03:00am 8.6 7.5 8.6 100 0.0 NNW 4 7 2 4 - - 0.0
31/02:30am 9.0 8.0 9.0 100 0.0 NW 4 7 2 4 - - 0.0
31/02:00am 8.5 7.4 8.5 100 0.0 NW 4 6 2 3 - - 0.0
31/01:30am 8.3 7.5 8.3 100 0.0 NW 2 4 1 2 - - 0.0
31/01:00am 7.0 5.9 6.7 98 0.1 NNW 2 4 1 2 - - 0.0
31/12:30am 7.8 6.8 7.4 97 0.2 NNW 2 4 1 2 - - 0.0
31/12:00am 9.2 8.2 8.7 97 0.2 NNW 4 4 2 2 - - 0.0
 
Date/Time
EST
Temp
°C
App
Temp
°C
Dew
Point
°C
Rel
Hum
%
Delta-T
°C
Wind Press
QNH
hPa
Press
MSL
hPa
Rain since
9am
mm
Dir  Spd
km/h
Gust
km/h
Spd
kts
Gust
kts
30/11:30pm 9.6 8.6 8.8 95 0.4 N 4 6 2 3 - - 0.0
30/11:00pm 10.9 9.6 10.0 94 0.5 NNE 7 11 4 6 - - 0.0
30/10:30pm 11.0 9.8 10.2 95 0.4 NNE 7 11 4 6 - - 0.0
30/10:00pm 11.1 10.1 10.3 95 0.4 NNE 6 9 3 5 - - 0.0
30/09:30pm 11.0 10.1 10.8 99 0.1 NE 6 11 3 6 - - 0.0
30/09:00pm 9.8 8.6 9.5 98 0.2 NE 6 7 3 4 - - 0.0
30/08:30pm 9.3 8.3 9.0 98 0.1 ENE 4 6 2 3 - - 0.0
30/08:00pm 8.7 7.6 8.4 98 0.1 ENE 4 6 2 3 - - 0.0
30/07:30pm 8.2 6.9 7.6 96 0.3 ENE 4 6 2 3 - - 0.0
30/07:00pm 8.2 7.6 7.3 94 0.4 CALM 0 0 0 0 - - 0.0
30/06:30pm 8.8 7.5 7.6 92 0.6 E 4 6 2 3 - - 0.0
30/06:00pm 9.3 8.2 7.1 86 1.1 E 2 6 1 3 - - 0.0
30/05:30pm 11.2 9.9 7.7 79 1.7 E 4 6 2 3 - - 0.0
30/05:00pm 13.5 12.0 9.2 75 2.2 E 7 13 4 7 - - 0.0
30/04:30pm 14.9 13.8 8.4 65 3.3 ENE 4 6 2 3 - - 0.0
30/04:00pm 15.8 14.7 8.5 62 3.8 ENE 4 7 2 4 - - 0.0
30/03:30pm 15.3 13.8 8.5 64 3.5 E 6 9 3 5 - - 0.0
30/03:00pm 15.7 13.9 8.0 60 3.9 E 7 11 4 6 - - 0.0
30/02:30pm 15.5 14.4 8.3 62 3.7 E 4 7 2 4 - - 0.0
30/02:00pm 15.4 13.8 8.2 62 3.7 SE 6 9 3 5 - - 0.0
30/01:30pm 15.8 14.8 7.3 57 4.3 SSW 2 6 1 3 - - 0.0
30/01:00pm 16.2 14.3 6.9 54 4.7 W 6 9 3 5 - - 0.0
30/12:30pm 17.1 15.9 8.0 55 4.7 WNW 4 13 2 7 - - 0.0
30/12:00pm 16.0 14.6 7.2 56 4.4 W 4 7 2 4 - - 0.0
30/11:30am 14.8 12.8 6.9 59 3.9 W 7 9 4 5 - - 0.0
30/11:00am 14.8 12.9 6.9 59 3.9 NW 6 9 3 5 - - 0.0
30/10:30am 13.3 11.2 5.7 60 3.6 WSW 6 9 3 5 - - 0.0
30/10:00am 12.2 10.3 6.7 69 2.7 WNW 6 7 3 4 - - 0.0
30/09:30am 10.9 8.5 5.4 69 2.6 NW 7 11 4 6 - - 0.0
30/09:00am 9.6 7.8 5.4 75 1.9 NW 4 7 2 4 - - 0.0
30/08:30am 7.8 5.7 5.6 86 1.0 NW 6 9 3 5 - - 0.0
30/08:00am 5.7 3.4 5.7 100 0.0 NW 7 9 4 5 - - 0.0
30/07:30am 3.5 0.9 3.4 99 0.0 NW 6 7 3 4 - - 0.0
30/07:00am 2.7 0.0 2.6 99 0.0 NW 6 7 3 4 - - 0.0
30/06:30am 2.4 -0.4 2.0 97 0.2 NW 6 7 3 4 - - 0.0
30/06:00am 2.3 -0.1 1.9 97 0.2 NW 4 6 2 3 - - 0.0
30/05:30am 3.1 0.4 2.7 97 0.2 NW 6 7 3 4 - - 0.0
30/05:00am 3.0 0.3 2.6 97 0.2 NW 6 7 3 4 - - 0.0
30/04:30am 3.3 0.6 2.9 97 0.2 NW 6 7 3 4 - - 0.0
30/04:00am 2.9 0.5 2.2 95 0.3 NW 4 6 2 3 - - 0.0
30/03:30am 3.2 0.5 2.8 97 0.2 NW 6 7 3 4 - - 0.0
30/03:00am 3.0 0.7 2.6 97 0.2 NW 4 6 2 3 - - 0.0
30/02:30am 2.9 0.5 2.3 96 0.2 NW 4 6 2 3 - - 0.0
30/02:00am 2.9 0.5 2.2 95 0.3 NW 4 6 2 3 - - 0.0
30/01:30am 3.5 1.2 2.8 95 0.3 NW 4 6 2 3 - - 0.0
30/01:00am 3.4 1.5 2.7 95 0.3 WNW 2 6 1 3 - - 0.0
30/12:30am 3.4 1.1 2.5 94 0.4 W 4 6 2 3 - - 0.0
30/12:00am 3.7 2.1 2.4 91 0.5 CALM 0 0 0 0 - - 0.0
 
Date/Time
EST
Temp
°C
App
Temp
°C
Dew
Point
°C
Rel
Hum
%
Delta-T
°C
Wind Press
QNH
hPa
Press
MSL
hPa
Rain since
9am
mm
Dir  Spd
km/h
Gust
km/h
Spd
kts
Gust
kts
29/11:30pm 4.4 2.1 2.6 88 0.7 NW 4 6 2 3 - - 0.0
29/11:00pm 5.3 3.0 2.8 84 1.0 WNW 4 7 2 4 - - 0.0
29/10:30pm 6.0 3.4 3.0 81 1.3 W 6 9 3 5 - - 0.0
29/10:00pm 7.1 4.5 3.2 76 1.7 W 6 9 3 5 - - 0.0
29/09:30pm 8.4 5.4 4.0 74 1.9 W 9 15 5 8 - - 0.0
29/09:00pm 7.7 5.1 3.2 73 1.9 W 6 7 3 4 - - 0.0
29/08:30pm 9.4 6.4 4.2 70 2.3 W 9 15 5 8 - - 0.0
29/08:00pm 9.6 6.9 5.6 76 1.9 W 9 15 5 8 - - 0.0
29/07:30pm 9.2 7.1 5.8 79 1.6 W 6 9 3 5 - - 0.0
29/07:00pm 7.5 5.3 5.1 85 1.1 WNW 6 7 3 4 - - 0.0
29/06:30pm 7.3 5.3 4.4 82 1.3 NW 4 6 2 3 - - 0.0
29/06:00pm 7.9 6.3 4.5 79 1.5 WSW 2 4 1 2 - - 0.0
29/05:30pm 8.7 7.0 3.9 72 2.1 W 2 4 1 2 - - 0.0
29/05:00pm 12.2 10.7 4.9 61 3.4 W 2 4 1 2 - - 0.0
29/04:30pm 14.9 13.0 4.9 51 4.8 W 4 9 2 5 - - 0.0
29/04:00pm 16.7 14.4 5.0 46 5.7 W 6 7 3 4 - - 0.0
29/03:30pm 16.3 13.8 3.7 43 5.9 NW 6 13 3 7 - - 0.0
29/03:00pm 17.0 14.0 4.0 42 6.2 WNW 9 15 5 8 - - 0.0
29/02:30pm 16.7 13.7 4.1 43 6.0 WNW 9 15 5 8 - - 0.0
29/02:00pm 16.0 12.6 3.8 44 5.7 W 11 15 6 8 - - 0.0
29/01:30pm 15.6 12.1 3.4 44 5.7 W 11 19 6 10 - - 0.0
29/01:00pm 15.7 12.2 3.5 44 5.7 WNW 11 17 6 9 - - 0.0
29/12:30pm 15.0 11.9 3.8 47 5.2 NW 9 13 5 7 - - 0.0
29/12:00pm 14.4 11.4 4.1 50 4.8 NW 9 13 5 7 - - 0.0
29/11:30am 13.0 10.0 4.2 55 4.1 NNW 9 13 5 7 - - 0.0
29/11:00am 12.5 9.7 5.2 61 3.4 NW 9 13 5 7 - - 0.0
29/10:30am 12.1 8.9 5.3 63 3.2 NW 11 15 6 8 - - 0.0
29/10:00am 10.7 7.7 4.0 63 3.0 NW 9 13 5 7 - - 0.0
29/09:30am 9.9 6.9 4.1 67 2.6 NW 9 13 5 7 - - 0.0
29/09:00am 8.5 5.0 3.4 70 2.2 WNW 11 17 6 9 - - 0.0
29/08:30am 7.2 4.0 2.9 74 1.8 NW 9 15 5 8 - - 0.0
29/08:00am 6.1 2.9 3.3 82 1.2 NW 9 13 5 7 - - 0.0
29/07:30am 4.5 1.6 2.5 87 0.8 NW 7 11 4 6 - - 0.0
29/07:00am 3.6 0.2 2.1 90 0.6 NW 9 13 5 7 - - 0.0
29/06:30am 2.8 -0.1 1.2 89 0.6 NW 6 9 3 5 - - 0.0
29/06:00am 3.4 0.6 1.8 89 0.6 NW 6 11 3 6 - - 0.0
29/05:30am 3.5 0.5 1.9 89 0.6 NW 7 11 4 6 - - 0.0
29/05:00am 3.7 0.7 2.2 90 0.6 NW 7 9 4 5 - - 0.0
29/04:30am 3.7 0.9 2.2 90 0.6 NW 6 9 3 5 - - 0.0
29/04:00am 3.9 1.0 2.6 91 0.5 NW 7 11 4 6 - - 0.0
29/03:30am 2.8 -0.2 1.8 93 0.4 NW 7 9 4 5 - - 0.0
29/03:00am 3.0 0.2 2.0 93 0.4 NW 6 9 3 5 - - 0.0
29/02:30am 3.4 0.6 2.2 92 0.5 NW 6 9 3 5 - - 0.0
29/02:00am 3.7 1.0 2.7 93 0.4 NW 6 9 3 5 - - 0.0
29/01:30am 3.4 0.7 2.5 94 0.4 NW 6 9 3 5 - - 0.0
29/01:00am 3.4 1.1 2.5 94 0.4 NW 4 7 2 4 - - 0.0
29/12:30am 3.7 2.1 2.4 91 0.5 CALM 0 2 0 1 - - 0.0
29/12:00am 4.5 2.7 3.2 91 0.5 NNW 2 4 1 2 - - 0.0
 
Date/Time
EST
Temp
°C
App
Temp
°C
Dew
Point
°C
Rel
Hum
%
Delta-T
°C
Wind Press
QNH
hPa
Press
MSL
hPa
Rain since
9am
mm
Dir  Spd
km/h
Gust
km/h
Spd
kts
Gust
kts
28/11:30pm 4.3 2.0 2.8 90 0.6 WNW 4 6 2 3 - - 0.0
28/11:00pm 4.7 2.3 2.4 85 0.9 WNW 4 7 2 4 - - 0.0
28/10:30pm 5.4 3.4 2.2 80 1.3 WNW 2 4 1 2 - - 0.0
28/10:00pm 7.3 5.0 2.6 72 2.0 W 4 7 2 4 - - 0.0
28/09:30pm 7.7 5.1 3.2 73 1.9 W 6 7 3 4 - - 0.0
28/09:00pm 7.7 5.3 2.4 69 2.2 WSW 4 6 2 3 - - 0.0
28/08:30pm 8.6 6.0 3.2 69 2.4 W 6 7 3 4 - - 0.0
28/08:00pm 10.0 7.2 3.3 63 3.0 W 7 13 4 7 - - 0.0
28/07:30pm 9.5 7.0 3.9 68 2.5 W 6 9 3 5 - - 0.0
28/07:00pm 10.9 8.6 5.9 71 2.4 WSW 7 20 4 11 - - 0.0
28/06:30pm 9.6 8.0 6.3 80 1.6 W 4 7 2 4 - - 0.0
28/06:00pm 9.8 8.7 5.0 72 2.2 CALM 0 4 0 2 - - 0.0
28/05:30pm 11.6 10.1 5.0 64 3.1 WNW 2 4 1 2 - - 0.0
28/05:00pm 13.7 11.9 5.3 57 4.0 NW 4 7 2 4 - - 0.0
28/04:30pm 15.1 12.7 5.3 52 4.7 NW 7 11 4 6 - - 0.0
28/04:00pm 16.4 13.6 5.1 47 5.5 NW 9 15 5 8 - - 0.0
28/03:30pm 16.6 13.6 4.3 44 5.9 NNW 9 15 5 8 - - 0.0
28/03:00pm 16.8 13.9 4.5 44 5.9 NW 9 17 5 9 - - 0.0
28/02:30pm 16.9 14.0 4.9 45 5.8 NW 9 15 5 8 - - 0.0
28/02:00pm 16.3 13.5 3.0 41 6.2 NW 7 15 4 8 - - 0.0
28/01:30pm 16.2 13.2 3.9 44 5.8 NW 9 17 5 9 - - 0.0
28/01:00pm 15.8 13.2 4.2 46 5.5 NW 7 15 4 8 - - 0.0
28/12:30pm 15.3 12.4 4.7 49 5.0 WNW 9 15 5 8 - - 0.0
28/12:00pm 15.1 12.6 5.0 51 4.8 NW 7 13 4 7 - - 0.0
28/11:30am 14.5 12.0 5.0 53 4.5 NW 7 13 4 7 - - 0.0
28/11:00am 13.9 11.1 5.3 56 4.1 NW 9 13 5 7 - - 0.0
28/10:30am 12.3 9.4 4.8 60 3.5 NW 9 17 5 9 - - 0.0
28/10:00am 11.5 8.6 4.7 63 3.1 NW 9 15 5 8 - - 0.0
28/09:30am 11.1 8.6 4.8 65 2.9 NW 7 11 4 6 - - 0.0
28/09:00am 10.1 7.1 4.3 67 2.6 WNW 9 15 5 8 - - 0.0

Other Formats:

Comma delimited format used in spreadsheet applications
http://www.bom.gov.au/fwo/IDN60801/IDN60801.95774.axf

JavaScript Object Notation format (JSON) in row-major order
http://www.bom.gov.au/fwo/IDN60801/IDN60801.95774.json